Time;durP1;ratioP1;P1;durP2;ratioP2;P2;SDS_P1;SDS_P2;PMS_P1;PMS_P2;Temp;Humidity;BMP_temperature;BMP_pressure;BME280_temperature;BME280_humidity;BME280_pressure;Samples;Min_cycle;Max_cycle;Signal;HPM_P1;HPM_P2
2021/10/31 00:02:00;;;;;;;11.27;10.07;;;;;;;8.37;100.00;97572.09;5018225;28;20227;-70
2021/10/31 00:04:28;;;;;;;11.33;10.23;;;;;;;8.40;100.00;97574.44;5048004;28;20203;-68
2021/10/31 00:06:57;;;;;;;11.93;10.83;;;;;;;8.44;100.00;97580.19;5040100;28;20638;-69
2021/10/31 00:09:25;;;;;;;11.57;10.43;;;;;;;8.39;100.00;97575.41;5049393;28;20202;-70
2021/10/31 00:11:53;;;;;;;11.50;10.40;;;;;;;8.33;100.00;97576.03;5051730;28;20219;-70
2021/10/31 00:14:23;;;;;;;12.10;10.90;;;;;;;8.38;100.00;97593.06;5049600;28;20203;-69
2021/10/31 00:16:57;;;;;;;11.73;10.43;;;;;;;8.37;100.00;97588.75;5051851;28;20199;-69
2021/10/31 00:19:26;;;;;;;11.83;10.73;;;;;;;8.33;100.00;97590.06;5013435;28;20733;-69
2021/10/31 00:21:54;;;;;;;11.57;10.37;;;;;;;8.28;100.00;97591.53;5041863;28;20234;-69
2021/10/31 00:24:23;;;;;;;12.00;10.80;;;;;;;8.26;100.00;97586.41;5050614;28;20556;-69
2021/10/31 00:26:51;;;;;;;11.10;10.10;;;;;;;8.26;100.00;97587.22;5052203;28;20207;-70
2021/10/31 00:29:19;;;;;;;11.13;10.03;;;;;;;8.25;100.00;97580.28;5049445;28;20199;-69
2021/10/31 00:31:47;;;;;;;11.33;10.30;;;;;;;8.10;100.00;97582.72;5050192;28;20803;-70
2021/10/31 00:34:15;;;;;;;11.20;10.10;;;;;;;8.13;100.00;97580.75;5017519;28;20594;-69
2021/10/31 00:36:43;;;;;;;11.60;10.57;;;;;;;8.15;100.00;97592.00;5047985;28;20356;-69
2021/10/31 00:39:11;;;;;;;10.80;9.73;;;;;;;8.17;100.00;97582.09;5041290;28;20225;-70
2021/10/31 00:41:41;;;;;;;11.00;9.90;;;;;;;8.21;100.00;97575.50;5050394;28;20280;-71
2021/10/31 00:44:09;;;;;;;10.17;9.17;;;;;;;8.33;100.00;97582.16;5052898;28;20214;-69
2021/10/31 00:46:36;;;;;;;11.67;10.57;;;;;;;8.32;100.00;97571.72;5050068;28;20418;-70
2021/10/31 00:49:04;;;;;;;11.13;10.13;;;;;;;8.21;100.00;97568.41;5015844;28;20381;-69
2021/10/31 00:51:32;;;;;;;10.60;9.70;;;;;;;8.11;100.00;97568.53;5043467;28;20898;-69
2021/10/31 00:54:01;;;;;;;10.77;9.77;;;;;;;8.25;100.00;97576.84;5042288;28;20606;-70
2021/10/31 00:56:30;;;;;;;11.03;10.03;;;;;;;8.33;100.00;97583.94;5048936;28;20348;-69
2021/10/31 00:59:00;;;;;;;10.83;9.83;;;;;;;8.33;100.00;97586.59;5050187;28;20252;-69
2021/10/31 01:01:30;;;;;;;10.23;9.33;;;;;;;8.24;100.00;97585.75;5048101;28;20219;-68
2021/10/31 01:03:58;;;;;;;9.93;9.03;;;;;;;8.28;100.00;97575.69;5051600;28;20282;-70
2021/10/31 01:07:03;;;;;;;11.03;9.93;;;;;;;8.28;100.00;97578.31;5006368;28;20211;-69
2021/10/31 01:09:39;;;;;;;9.43;8.53;;;;;;;8.31;100.00;97570.09;5036345;28;20260;-68
2021/10/31 01:12:30;;;;;;;10.53;9.53;;;;;;;8.27;100.00;97574.88;5050137;28;20270;-70
2021/10/31 01:15:09;;;;;;;10.03;9.10;;;;;;;8.33;100.00;97574.22;5052479;28;20388;-69
2021/10/31 01:17:47;;;;;;;10.47;9.47;;;;;;;8.29;100.00;97574.69;5049310;28;20214;-69
2021/10/31 01:20:21;;;;;;;9.47;8.57;;;;;;;8.34;100.00;97577.72;5018176;28;20562;-70
2021/10/31 01:23:09;;;;;;;9.53;8.73;;;;;;;8.38;100.00;97579.84;5014598;28;20226;-69
2021/10/31 01:25:46;;;;;;;10.23;9.43;;;;;;;8.39;100.00;97589.44;5045921;28;20249;-70
2021/10/31 01:28:22;;;;;;;10.30;9.30;;;;;;;8.50;100.00;97577.78;5041033;28;20230;-69
2021/10/31 01:31:00;;;;;;;9.27;8.47;;;;;;;8.50;100.00;97569.84;5040636;28;20210;-71
2021/10/31 01:33:38;;;;;;;10.57;9.53;;;;;;;8.51;100.00;97576.78;5049905;28;20229;-69
2021/10/31 01:36:12;;;;;;;9.43;8.43;;;;;;;8.46;100.00;97581.69;5040645;28;20229;-69
2021/10/31 01:38:45;;;;;;;9.03;8.23;;;;;;;8.47;100.00;97587.78;5020441;28;20726;-69
2021/10/31 01:41:17;;;;;;;10.27;9.27;;;;;;;8.49;100.00;97589.31;5050919;28;20222;-70
2021/10/31 01:43:51;;;;;;;9.03;8.23;;;;;;;8.58;100.00;97579.63;5057279;28;20629;-69
2021/10/31 01:46:28;;;;;;;9.40;8.50;;;;;;;8.45;100.00;97574.75;5043381;28;20900;-70
2021/10/31 01:49:01;;;;;;;10.07;8.97;;;;;;;8.52;100.00;97580.25;5056382;28;20290;-70
2021/10/31 01:51:34;;;;;;;9.07;8.17;;;;;;;8.50;100.00;97569.84;5042648;28;20457;-70
2021/10/31 01:54:03;;;;;;;9.27;8.47;;;;;;;8.60;100.00;97571.53;5019079;28;20437;-69
2021/10/31 01:56:35;;;;;;;10.03;8.27;;;;;;;8.51;100.00;97571.50;5053273;28;20306;-69
2021/10/31 01:59:05;;;;;;;9.70;8.27;;;;;;;8.62;100.00;97577.47;5054534;28;20226;-69
2021/10/31 02:01:37;;;;;;;9.33;8.37;;;;;;;8.63;100.00;97587.03;5043016;28;20222;-70
2021/10/31 02:04:09;;;;;;;9.07;8.37;;;;;;;8.53;100.00;97588.03;5053488;28;20290;-70
2021/10/31 02:06:42;;;;;;;8.87;8.07;;;;;;;8.56;100.00;97583.41;5044441;28;20211;-68
2021/10/31 02:09:10;;;;;;;8.93;8.13;;;;;;;8.54;100.00;97586.22;5020995;28;20215;-69
2021/10/31 02:11:39;;;;;;;11.67;8.70;;;;;;;8.50;100.00;97583.06;5050760;28;20234;-70
2021/10/31 02:14:08;;;;;;;9.03;8.17;;;;;;;8.56;100.00;97571.03;5053416;28;20218;-69
2021/10/31 02:16:38;;;;;;;9.83;8.83;;;;;;;8.57;100.00;97572.69;5041694;28;21394;-70
2021/10/31 02:19:09;;;;;;;9.20;8.43;;;;;;;8.61;100.00;97575.81;5053247;28;20732;-70
2021/10/31 02:21:38;;;;;;;9.00;8.20;;;;;;;8.53;100.00;97576.63;5040917;28;20607;-70
2021/10/31 02:24:08;;;;;;;8.40;7.60;;;;;;;8.65;100.00;97577.13;5022070;28;20223;-69
2021/10/31 02:26:36;;;;;;;9.37;8.57;;;;;;;8.66;100.00;97592.84;5050973;28;20226;-70
2021/10/31 02:29:07;;;;;;;8.60;7.67;;;;;;;8.59;100.00;97583.91;5054225;28;20257;-70
2021/10/31 02:31:37;;;;;;;7.83;7.17;;;;;;;8.58;100.00;97569.06;5054567;28;20332;-69
2021/10/31 02:34:06;;;;;;;9.77;7.80;;;;;;;8.37;100.00;97572.91;5042970;28;20210;-69
2021/10/31 02:36:34;;;;;;;8.23;7.43;;;;;;;8.32;100.00;97584.94;5040257;28;20224;-69
2021/10/31 02:39:03;;;;;;;8.80;8.00;;;;;;;8.28;100.00;97581.81;5018793;28;20234;-69
2021/10/31 02:41:33;;;;;;;7.40;6.90;;;;;;;8.29;100.00;97578.19;5052761;28;20238;-69
2021/10/31 02:44:02;;;;;;;9.30;8.50;;;;;;;8.26;100.00;97584.59;5053374;28;20210;-70
2021/10/31 02:46:32;;;;;;;8.77;7.97;;;;;;;8.32;100.00;97588.41;5036445;28;20211;-70
2021/10/31 02:49:01;;;;;;;9.17;8.43;;;;;;;8.35;100.00;97582.81;5041976;28;20207;-70
2021/10/31 02:51:39;;;;;;;7.07;6.47;;;;;;;8.45;100.00;97573.94;5044249;28;20227;-74
2021/10/31 02:54:09;;;;;;;7.90;7.20;;;;;;;8.63;100.00;97572.03;5021679;28;20211;-73
2021/10/31 02:56:43;;;;;;;7.63;6.80;;;;;;;8.77;100.00;97577.66;5042945;28;20233;-73
2021/10/31 02:59:16;;;;;;;7.63;7.03;;;;;;;8.71;100.00;97573.03;5050617;28;20236;-76
2021/10/31 03:01:45;;;;;;;7.80;7.00;;;;;;;8.72;100.00;97579.97;5047674;28;20227;-74
2021/10/31 03:04:13;;;;;;;7.90;7.20;;;;;;;8.47;100.00;97577.22;5045626;28;20233;-73
2021/10/31 03:06:41;;;;;;;7.83;7.13;;;;;;;8.54;100.00;97583.56;5050702;28;20344;-71
2021/10/31 03:09:10;;;;;;;8.37;7.67;;;;;;;8.34;100.00;97575.88;5004452;28;20583;-70
2021/10/31 03:11:40;;;;;;;7.10;6.50;;;;;;;8.37;100.00;97572.91;5046451;28;20231;-70
2021/10/31 03:14:08;;;;;;;7.40;6.80;;;;;;;8.31;100.00;97575.38;5053114;28;20203;-70
2021/10/31 03:16:36;;;;;;;7.87;7.10;;;;;;;8.30;100.00;97581.63;5052083;28;20426;-71
2021/10/31 03:19:04;;;;;;;8.27;7.57;;;;;;;8.25;100.00;97582.13;5035077;28;20235;-70
2021/10/31 03:21:32;;;;;;;7.67;6.97;;;;;;;8.10;100.00;97588.00;5052191;28;20223;-70
2021/10/31 03:24:00;;;;;;;8.50;7.80;;;;;;;8.03;100.00;97580.88;5043515;28;20210;-70
2021/10/31 03:26:28;;;;;;;7.50;6.80;;;;;;;8.00;100.00;97591.75;5019680;28;20534;-71
2021/10/31 03:28:57;;;;;;;7.83;7.23;;;;;;;7.89;100.00;97593.66;5049290;28;20218;-71
2021/10/31 03:31:25;;;;;;;7.93;7.23;;;;;;;7.90;100.00;97595.31;5060849;28;20242;-70
2021/10/31 03:33:53;;;;;;;7.50;6.80;;;;;;;7.77;100.00;97592.28;5006229;28;20210;-71
2021/10/31 03:36:21;;;;;;;8.30;7.37;;;;;;;7.72;100.00;97584.00;5053104;28;20781;-72
2021/10/31 03:38:49;;;;;;;7.77;7.07;;;;;;;7.84;100.00;97572.19;5039115;28;20923;-71
2021/10/31 03:41:17;;;;;;;8.53;7.20;;;;;;;7.71;100.00;97585.81;5042529;28;20306;-70
2021/10/31 03:43:45;;;;;;;8.10;7.40;;;;;;;7.53;100.00;97584.06;5042064;28;20698;-72
2021/10/31 03:46:15;;;;;;;8.67;7.60;;;;;;;7.46;100.00;97585.66;5055798;28;20670;-71
2021/10/31 03:48:43;;;;;;;8.60;7.80;;;;;;;7.34;100.00;97571.06;5016288;28;20420;-71
2021/10/31 03:51:11;;;;;;;8.53;7.63;;;;;;;7.32;100.00;97573.88;5052165;28;20222;-69
2021/10/31 03:53:38;;;;;;;8.60;7.90;;;;;;;7.21;100.00;97582.84;5047732;28;20203;-70
2021/10/31 03:56:06;;;;;;;8.07;6.90;;;;;;;7.22;100.00;97584.50;5042247;28;20211;-69
2021/10/31 03:58:34;;;;;;;8.90;8.00;;;;;;;7.14;100.00;97587.06;5035293;28;20298;-69
2021/10/31 04:01:02;;;;;;;8.37;7.67;;;;;;;7.06;100.00;97576.47;5040291;28;20246;-70
2021/10/31 04:03:33;;;;;;;7.87;7.17;;;;;;;7.02;100.00;97585.66;5022130;28;20220;-69
2021/10/31 04:06:01;;;;;;;9.07;8.27;;;;;;;6.94;100.00;97589.84;5052783;28;20203;-69
2021/10/31 04:08:29;;;;;;;8.37;7.57;;;;;;;6.89;100.00;97586.84;5032929;28;20731;-69
2021/10/31 04:10:57;;;;;;;7.50;6.90;;;;;;;6.81;100.00;97592.84;5051263;28;20203;-69
2021/10/31 04:13:25;;;;;;;9.10;8.30;;;;;;;6.85;100.00;97593.41;5041875;28;20429;-70
2021/10/31 04:15:53;;;;;;;7.77;7.17;;;;;;;6.73;100.00;97590.16;5041193;28;20215;-69
2021/10/31 04:18:21;;;;;;;8.63;7.83;;;;;;;6.78;100.00;97593.16;5049085;28;20491;-70
2021/10/31 04:20:51;;;;;;;7.73;7.13;;;;;;;6.66;100.00;97589.94;5007159;28;20238;-69
2021/10/31 04:23:19;;;;;;;9.47;8.47;;;;;;;6.60;100.00;97603.66;5048609;28;20801;-67
2021/10/31 04:25:47;;;;;;;8.60;7.80;;;;;;;6.54;100.00;97603.47;5052142;28;20215;-68
2021/10/31 04:28:15;;;;;;;8.50;7.70;;;;;;;6.43;100.00;97599.22;5031521;28;21119;-67
2021/10/31 04:30:43;;;;;;;9.27;7.47;;;;;;;6.37;100.00;97609.38;5041344;28;20231;-68
2021/10/31 04:33:11;;;;;;;8.93;8.17;;;;;;;6.29;100.00;97606.63;5047548;28;20781;-66
2021/10/31 04:35:40;;;;;;;9.47;8.47;;;;;;;6.30;100.00;97603.03;5016638;28;20215;-68
2021/10/31 04:38:13;;;;;;;9.17;8.37;;;;;;;6.31;100.00;97594.16;5039910;28;20204;-67
2021/10/31 04:40:41;;;;;;;8.73;8.00;;;;;;;6.20;100.00;97599.59;5046121;28;20238;-68
2021/10/31 04:43:11;;;;;;;8.93;7.57;;;;;;;6.15;100.00;97601.84;5030826;28;20733;-66
2021/10/31 04:45:40;;;;;;;8.87;7.97;;;;;;;6.16;100.00;97598.22;5052873;28;20316;-68
2021/10/31 04:48:08;;;;;;;9.67;8.83;;;;;;;6.12;100.00;97600.34;5033207;28;20666;-67
2021/10/31 04:50:37;;;;;;;8.83;8.07;;;;;;;6.12;100.00;97594.25;5017838;28;20211;-67
2021/10/31 04:53:07;;;;;;;9.70;8.90;;;;;;;6.14;100.00;97601.03;5048435;28;20764;-67
2021/10/31 04:55:37;;;;;;;11.20;8.93;;;;;;;6.18;100.00;97601.56;5046551;28;20207;-68
2021/10/31 04:58:05;;;;;;;10.80;9.80;;;;;;;6.17;100.00;97600.72;5035677;28;20351;-67
2021/10/31 05:00:34;;;;;;;10.37;8.93;;;;;;;6.16;100.00;97604.34;5039087;28;20567;-66
2021/10/31 05:03:02;;;;;;;10.17;9.23;;;;;;;6.24;100.00;97600.97;5032372;28;20226;-67
2021/10/31 05:05:31;;;;;;;10.70;9.67;;;;;;;6.31;100.00;97602.06;5047422;28;20242;-67
2021/10/31 05:07:59;;;;;;;10.47;9.37;;;;;;;6.33;100.00;97594.00;5018489;28;20987;-67
2021/10/31 05:10:28;;;;;;;11.73;10.63;;;;;;;6.31;100.00;97596.78;5051022;28;20437;-68
2021/10/31 05:12:58;;;;;;;10.37;9.37;;;;;;;6.31;100.00;97596.78;5050146;28;20654;-67
2021/10/31 05:15:26;;;;;;;10.83;9.83;;;;;;;6.31;100.00;97593.31;5041842;28;20411;-68
2021/10/31 05:17:55;;;;;;;10.77;9.70;;;;;;;6.24;100.00;97590.44;5033097;28;20203;-67
2021/10/31 05:20:24;;;;;;;10.20;9.20;;;;;;;6.27;100.00;97594.59;5036883;28;20222;-68
2021/10/31 05:22:52;;;;;;;11.50;10.40;;;;;;;6.32;100.00;97600.25;5015366;28;20714;-67
2021/10/31 05:25:20;;;;;;;11.27;10.17;;;;;;;6.30;100.00;97587.25;5040324;28;20638;-67
2021/10/31 05:27:48;;;;;;;11.93;10.83;;;;;;;6.27;100.00;97595.44;5050329;28;20298;-67
2021/10/31 05:30:17;;;;;;;11.47;10.30;;;;;;;6.20;100.00;97587.28;5040470;28;20601;-70
2021/10/31 05:32:46;;;;;;;11.43;10.23;;;;;;;6.28;100.00;97590.97;5048089;28;20262;-66
2021/10/31 05:35:14;;;;;;;11.67;10.47;;;;;;;6.40;100.00;97589.78;5029820;28;20510;-68
2021/10/31 05:37:45;;;;;;;11.57;10.47;;;;;;;6.44;100.00;97591.19;5016536;28;20249;-69
2021/10/31 05:40:14;;;;;;;11.93;10.73;;;;;;;6.45;100.00;97584.09;5008552;28;20227;-69
2021/10/31 05:42:43;;;;;;;11.80;10.80;;;;;;;6.45;100.00;97589.38;5050281;28;20223;-69
2021/10/31 05:45:12;;;;;;;10.27;9.30;;;;;;;6.49;100.00;97588.09;5035224;28;20830;-70
2021/10/31 05:47:43;;;;;;;13.23;10.60;;;;;;;6.38;100.00;97583.84;5047211;28;20429;-69
2021/10/31 05:50:13;;;;;;;10.97;10.07;;;;;;;6.33;100.00;97572.94;5038406;28;20207;-69
2021/10/31 05:52:42;;;;;;;11.93;10.83;;;;;;;6.25;100.00;97580.75;5050403;28;20633;-68
2021/10/31 05:55:12;;;;;;;10.23;9.23;;;;;;;6.26;100.00;97572.72;5015534;28;20219;-69
2021/10/31 05:57:40;;;;;;;11.07;9.97;;;;;;;6.31;100.00;97574.91;5047917;28;20230;-69
2021/10/31 06:00:10;;;;;;;11.63;10.10;;;;;;;6.26;100.00;97569.25;5048164;28;20227;-69
2021/10/31 06:02:38;;;;;;;13.17;11.87;;;;;;;6.17;100.00;97576.22;5050167;28;20455;-68
2021/10/31 06:05:11;;;;;;;12.63;11.43;;;;;;;6.20;100.00;97575.91;5041831;28;20384;-71
2021/10/31 06:07:39;;;;;;;11.97;10.87;;;;;;;6.12;100.00;97574.03;5049008;28;20793;-69
2021/10/31 06:10:08;;;;;;;12.90;11.57;;;;;;;6.18;100.00;97573.44;5043097;28;20244;-69
2021/10/31 06:12:37;;;;;;;11.73;10.53;;;;;;;6.22;100.00;97563.44;5025686;28;20270;-71
2021/10/31 06:15:06;;;;;;;13.00;11.70;;;;;;;6.20;100.00;97573.28;5041892;28;20599;-69
2021/10/31 06:17:34;;;;;;;11.80;10.60;;;;;;;6.18;100.00;97568.19;5045937;28;20203;-69
2021/10/31 06:20:03;;;;;;;12.20;11.00;;;;;;;6.24;100.00;97564.13;5026728;28;20236;-70
2021/10/31 06:22:32;;;;;;;12.03;10.87;;;;;;;6.33;100.00;97571.16;5051578;28;20227;-68
2021/10/31 06:25:00;;;;;;;11.33;10.33;;;;;;;6.38;100.00;97570.69;5047184;28;20207;-67
2021/10/31 06:27:28;;;;;;;13.30;11.87;;;;;;;6.44;100.00;97572.75;5021732;28;20605;-70
2021/10/31 06:29:56;;;;;;;11.60;10.60;;;;;;;6.34;100.00;97571.97;5047791;28;20214;-70
2021/10/31 06:32:24;;;;;;;12.40;10.80;;;;;;;6.34;100.00;97570.19;5054202;28;20318;-70
2021/10/31 06:34:51;;;;;;;11.33;10.33;;;;;;;6.43;100.00;97572.91;5025622;28;20218;-68
2021/10/31 06:37:20;;;;;;;18.07;11.00;;;;;;;6.42;100.00;97571.25;5050446;28;20218;-70
2021/10/31 06:39:49;;;;;;;12.13;11.03;;;;;;;6.40;100.00;97567.94;5051650;28;20238;-69
2021/10/31 06:42:17;;;;;;;11.57;10.47;;;;;;;6.42;100.00;97573.88;5011138;28;20219;-69
2021/10/31 06:44:45;;;;;;;13.30;11.77;;;;;;;6.48;100.00;97578.53;5049582;28;20237;-69
2021/10/31 06:47:15;;;;;;;12.60;11.40;;;;;;;6.46;100.00;97583.97;5056045;28;20214;-69
2021/10/31 06:49:44;;;;;;;13.10;11.83;;;;;;;6.49;100.00;97578.41;5045104;28;20226;-69
2021/10/31 06:52:12;;;;;;;12.70;11.37;;;;;;;6.48;100.00;97578.53;5049041;28;20227;-68
2021/10/31 06:54:40;;;;;;;15.03;13.30;;;;;;;6.58;100.00;97581.13;5049433;28;20256;-69
2021/10/31 06:57:10;;;;;;;12.97;11.67;;;;;;;6.61;100.00;97580.81;5021897;28;20875;-69
2021/10/31 06:59:38;;;;;;;12.60;11.33;;;;;;;6.65;100.00;97577.75;5039448;28;20207;-69
2021/10/31 07:02:06;;;;;;;13.30;11.83;;;;;;;6.85;100.00;97580.22;5053472;28;20223;-71
2021/10/31 07:04:34;;;;;;;12.47;11.27;;;;;;;6.88;100.00;97581.75;5053780;28;20658;-69
2021/10/31 07:07:03;;;;;;;12.40;11.20;;;;;;;7.02;100.00;97577.75;5040408;28;20298;-69
2021/10/31 07:09:31;;;;;;;13.97;11.03;;;;;;;7.15;100.00;97575.56;5055756;28;20222;-67
2021/10/31 07:11:59;;;;;;;13.57;12.10;;;;;;;7.30;100.00;97583.75;5016268;28;20227;-68
2021/10/31 07:14:29;;;;;;;13.63;12.23;;;;;;;7.37;100.00;97582.13;5036075;28;20242;-68
2021/10/31 07:16:57;;;;;;;12.97;11.67;;;;;;;7.44;100.00;97587.63;5053661;28;20203;-70
2021/10/31 07:19:25;;;;;;;13.23;11.83;;;;;;;7.53;100.00;97584.06;5040030;28;20629;-68
2021/10/31 07:21:53;;;;;;;13.17;11.90;;;;;;;7.74;100.00;97579.41;5040524;28;20406;-68
2021/10/31 07:24:21;;;;;;;13.03;11.83;;;;;;;7.77;100.00;97577.28;5051079;28;20349;-68
2021/10/31 07:26:49;;;;;;;12.73;11.43;;;;;;;7.91;100.00;97572.41;5051820;28;20199;-70
2021/10/31 07:29:17;;;;;;;14.40;13.00;;;;;;;8.02;100.00;97569.47;5021353;28;20234;-70
2021/10/31 07:31:49;;;;;;;13.57;12.20;;;;;;;8.21;100.00;97572.88;5050628;28;20878;-71
2021/10/31 07:34:18;;;;;;;14.07;12.03;;;;;;;8.33;100.00;97563.66;5042191;28;20207;-74
2021/10/31 07:36:46;;;;;;;13.30;11.97;;;;;;;8.29;100.00;97564.97;5048903;28;20375;-71
2021/10/31 07:39:14;;;;;;;13.93;12.53;;;;;;;8.42;100.00;97566.31;5043370;28;20563;-70
2021/10/31 07:41:42;;;;;;;14.33;12.70;;;;;;;8.71;100.00;97557.19;5041417;28;20653;-69
2021/10/31 07:44:10;;;;;;;13.80;12.40;;;;;;;8.94;100.00;97563.50;5017092;28;20225;-66
2021/10/31 07:46:38;;;;;;;12.33;11.10;;;;;;;8.87;100.00;97575.69;5049031;28;20547;-70
2021/10/31 07:49:11;;;;;;;13.07;11.77;;;;;;;8.87;100.00;97575.69;5028001;28;20310;-70
2021/10/31 07:51:39;;;;;;;12.57;11.40;;;;;;;8.97;100.00;97575.53;5048170;28;20594;-70
2021/10/31 07:54:07;;;;;;;13.40;12.10;;;;;;;8.99;100.00;97570.91;5050604;28;20370;-71
2021/10/31 07:56:36;;;;;;;14.40;12.73;;;;;;;9.08;100.00;97566.47;5053880;28;20226;-71
2021/10/31 07:59:04;;;;;;;27.27;23.17;;;;;;;9.14;100.00;97568.44;5038369;28;20290;-70
2021/10/31 08:01:32;;;;;;;14.47;12.83;;;;;;;9.41;100.00;97569.91;5050655;28;20248;-69
2021/10/31 08:04:01;;;;;;;13.17;11.97;;;;;;;9.46;100.00;97561.50;5012533;28;20340;-70
2021/10/31 08:06:30;;;;;;;12.13;11.03;;;;;;;9.56;100.00;97559.47;5048821;28;20282;-68
2021/10/31 08:08:58;;;;;;;12.77;11.50;;;;;;;9.60;100.00;97561.78;5050245;28;20570;-68
2021/10/31 08:11:26;;;;;;;13.47;12.10;;;;;;;9.73;100.00;97558.63;5053500;28;20266;-71
2021/10/31 08:13:54;;;;;;;12.20;11.00;;;;;;;9.89;100.00;97552.47;5038827;28;20669;-71
2021/10/31 08:16:24;;;;;;;12.27;10.80;;;;;;;10.05;100.00;97554.22;5052579;28;20203;-67
2021/10/31 08:18:53;;;;;;;12.17;11.13;;;;;;;9.98;100.00;97548.78;5018291;28;20317;-67
2021/10/31 08:21:22;;;;;;;13.17;11.87;;;;;;;10.09;100.00;97540.47;5051668;28;20238;-67
2021/10/31 08:23:51;;;;;;;11.60;10.60;;;;;;;10.16;100.00;97551.19;5050719;28;20575;-68
2021/10/31 08:26:19;;;;;;;12.00;10.90;;;;;;;10.28;100.00;97559.59;5045302;28;20196;-68
2021/10/31 08:28:49;;;;;;;11.57;10.47;;;;;;;10.41;100.00;97551.94;5030827;28;20207;-69
2021/10/31 08:31:23;;;;;;;11.13;10.13;;;;;;;10.57;100.00;97548.34;5050891;28;20233;-67
2021/10/31 08:33:55;;;;;;;11.43;10.43;;;;;;;10.65;100.00;97541.38;5049980;28;20217;-68
2021/10/31 08:36:23;;;;;;;23.03;19.77;;;;;;;10.75;100.00;97539.31;5004623;28;20813;-68
2021/10/31 08:38:53;;;;;;;13.33;12.00;;;;;;;10.71;100.00;97538.84;5049900;28;20206;-67
2021/10/31 08:41:22;;;;;;;12.17;10.97;;;;;;;10.81;100.00;97535.97;5045222;28;20253;-68
2021/10/31 08:43:52;;;;;;;12.33;11.07;;;;;;;11.04;100.00;97535.13;5040923;28;20296;-69
2021/10/31 08:46:20;;;;;;;11.27;10.17;;;;;;;11.14;100.00;97533.06;5049275;28;20561;-67
2021/10/31 08:48:48;;;;;;;11.40;10.30;;;;;;;11.21;100.00;97532.34;5033899;28;20302;-68
2021/10/31 08:51:19;;;;;;;11.77;10.67;;;;;;;11.40;100.00;97536.31;5021382;28;20489;-68
2021/10/31 08:53:47;;;;;;;10.97;9.97;;;;;;;11.42;100.00;97526.34;5036096;28;20246;-68
2021/10/31 08:56:17;;;;;;;10.90;10.00;;;;;;;11.62;100.00;97521.31;5049827;28;20516;-70
2021/10/31 08:58:45;;;;;;;11.27;10.13;;;;;;;11.78;100.00;97514.19;5039421;28;20376;-69
2021/10/31 09:01:14;;;;;;;9.97;9.07;;;;;;;11.90;100.00;97509.22;5052174;28;20227;-69
2021/10/31 09:03:43;;;;;;;10.53;9.53;;;;;;;12.08;100.00;97512.38;5049170;28;20754;-69
2021/10/31 09:06:12;;;;;;;13.63;11.97;;;;;;;12.09;100.00;97510.53;5016003;28;20218;-70
2021/10/31 09:08:41;;;;;;;14.07;12.67;;;;;;;12.19;100.00;97500.44;5043725;28;20203;-69
2021/10/31 09:11:09;;;;;;;10.33;9.43;;;;;;;12.30;100.00;97501.78;5045936;28;20222;-69
2021/10/31 09:13:39;;;;;;;11.00;9.93;;;;;;;12.49;100.00;97488.91;5047553;28;20207;-68
2021/10/31 09:16:08;;;;;;;11.57;10.57;;;;;;;12.61;100.00;97481.25;5039001;28;20615;-69
2021/10/31 09:18:37;;;;;;;10.17;9.20;;;;;;;12.80;100.00;97483.28;5046661;28;20598;-69
2021/10/31 09:21:06;;;;;;;10.93;9.73;;;;;;;12.87;100.00;97476.16;5011093;28;20823;-69
2021/10/31 09:23:34;;;;;;;10.57;9.57;;;;;;;12.95;100.00;97466.44;5043746;28;20594;-69
2021/10/31 09:26:02;;;;;;;11.20;10.20;;;;;;;13.01;100.00;97468.31;5042082;28;20596;-69
2021/10/31 09:28:30;;;;;;;9.73;8.83;;;;;;;13.01;100.00;97463.81;5049043;28;20698;-68
2021/10/31 09:31:00;;;;;;;10.20;9.30;;;;;;;13.12;100.00;97456.34;5038298;28;20207;-69
2021/10/31 09:33:29;;;;;;;10.73;9.73;;;;;;;13.09;100.00;97460.19;5052541;28;20290;-67
2021/10/31 09:35:58;;;;;;;9.33;8.47;;;;;;;13.25;100.00;97445.78;5049345;28;20363;-70
2021/10/31 09:38:29;;;;;;;9.57;8.77;;;;;;;13.27;100.00;97442.94;5016212;28;20919;-70
2021/10/31 09:40:57;;;;;;;9.53;8.60;;;;;;;13.41;100.00;97452.63;5048613;28;20452;-68
2021/10/31 09:43:28;;;;;;;9.73;8.97;;;;;;;13.68;100.00;97455.47;5052397;28;20227;-69
2021/10/31 09:45:59;;;;;;;9.50;8.70;;;;;;;13.70;100.00;97452.59;5038843;28;20535;-71
2021/10/31 09:48:33;;;;;;;9.63;8.83;;;;;;;13.88;100.00;97450.25;5052747;28;20777;-68
2021/10/31 09:51:01;;;;;;;9.80;8.80;;;;;;;13.98;100.00;97447.19;5050186;28;20296;-68
2021/10/31 09:53:30;;;;;;;16.73;15.13;;;;;;;14.02;100.00;97436.97;5017115;28;20236;-69
2021/10/31 09:55:59;;;;;;;9.57;8.73;;;;;;;14.13;100.00;97433.72;5012050;28;20215;-69
2021/10/31 09:58:32;;;;;;;9.57;7.60;;;;;;;14.22;100.00;97429.03;5050539;28;21011;-68
2021/10/31 10:01:06;;;;;;;8.70;8.00;;;;;;;14.31;100.00;97427.81;5052581;28;20762;-66
2021/10/31 10:03:38;;;;;;;8.73;7.97;;;;;;;14.36;100.00;97429.06;5054346;28;20226;-68
2021/10/31 10:06:15;;;;;;;9.37;8.43;;;;;;;14.38;100.00;97427.00;5052082;28;20241;-68
2021/10/31 10:08:57;;;;;;;8.77;8.03;;;;;;;14.39;100.00;97417.97;5055623;28;20222;-69
2021/10/31 10:11:26;;;;;;;8.37;7.67;;;;;;;14.49;100.00;97405.09;5021499;28;20226;-69
2021/10/31 10:13:54;;;;;;;7.80;7.20;;;;;;;14.60;100.00;97411.69;5051724;28;20554;-69
2021/10/31 10:16:29;;;;;;;10.30;8.07;;;;;;;14.77;100.00;97409.44;5054877;28;20199;-69
2021/10/31 10:18:58;;;;;;;7.10;6.50;;;;;;;14.96;100.00;97410.44;5052221;28;20206;-68
2021/10/31 10:21:28;;;;;;;8.47;7.70;;;;;;;15.05;100.00;97390.56;5054141;28;20219;-68
2021/10/31 10:23:58;;;;;;;7.57;6.97;;;;;;;15.04;100.00;97386.25;5051305;28;20235;-68
2021/10/31 10:26:33;;;;;;;8.23;7.43;;;;;;;15.21;100.00;97387.66;5021723;28;20302;-67
2021/10/31 10:29:04;;;;;;;7.43;6.80;;;;;;;15.25;100.00;97380.88;5050540;28;20210;-68
2021/10/31 10:31:33;;;;;;;7.17;6.57;;;;;;;15.32;100.00;97376.31;5051940;28;20418;-68
2021/10/31 10:34:04;;;;;;;7.83;7.20;;;;;;;15.66;100.00;97370.84;5052099;28;20203;-68
2021/10/31 10:36:37;;;;;;;7.17;6.57;;;;;;;15.79;100.00;97368.16;5051941;28;20207;-67
2021/10/31 10:39:07;;;;;;;6.93;6.23;;;;;;;15.91;100.00;97362.97;5049867;28;20225;-69
2021/10/31 10:41:46;;;;;;;6.37;5.87;;;;;;;15.96;100.00;97356.97;5019981;28;20258;-70
2021/10/31 10:44:25;;;;;;;6.57;6.07;;;;;;;15.99;100.00;97349.38;5050448;28;20429;-70
2021/10/31 10:46:56;;;;;;;6.17;5.67;;;;;;;15.99;100.00;97338.69;5052215;28;20221;-69
2021/10/31 10:49:27;;;;;;;6.00;5.50;;;;;;;16.02;99.05;97334.75;5055315;28;20203;-68
2021/10/31 10:52:11;;;;;;;6.33;5.83;;;;;;;16.07;99.64;97329.56;5051883;28;20460;-69
2021/10/31 10:54:40;;;;;;;6.13;5.53;;;;;;;16.04;98.37;97320.13;5051357;28;20697;-68
2021/10/31 10:57:10;;;;;;;5.83;5.33;;;;;;;16.32;91.94;97310.91;5015459;28;20388;-68
2021/10/31 10:59:38;;;;;;;6.03;5.40;;;;;;;16.43;91.36;97304.00;5050524;28;20579;-69
2021/10/31 11:02:11;;;;;;;6.03;5.37;;;;;;;16.45;92.94;97293.91;5051369;28;20344;-68
2021/10/31 11:04:42;;;;;;;5.73;5.23;;;;;;;16.69;88.38;97288.75;5051995;28;20746;-68
2021/10/31 11:07:11;;;;;;;6.67;6.07;;;;;;;16.90;85.52;97289.38;5052675;28;20421;-68
2021/10/31 11:09:41;;;;;;;5.73;5.30;;;;;;;16.78;83.08;97279.41;5054171;28;20485;-67
2021/10/31 11:12:27;;;;;;;5.53;4.97;;;;;;;16.90;83.32;97282.16;5016851;28;20256;-68
2021/10/31 11:14:58;;;;;;;6.10;5.60;;;;;;;16.95;81.79;97264.63;5050076;28;20705;-70
2021/10/31 11:17:26;;;;;;;5.63;5.13;;;;;;;17.16;78.71;97258.03;5054709;28;20203;-69
2021/10/31 11:19:56;;;;;;;5.33;4.93;;;;;;;17.18;80.15;97247.91;5051820;28;20207;-68
2021/10/31 11:22:27;;;;;;;5.67;5.27;;;;;;;17.25;74.72;97246.00;5054651;28;20733;-69
2021/10/31 11:24:56;;;;;;;5.60;5.10;;;;;;;17.47;71.24;97240.13;5051429;28;20223;-69
2021/10/31 11:27:26;;;;;;;6.10;5.60;;;;;;;17.44;71.23;97236.06;5020680;28;20217;-68
2021/10/31 11:29:55;;;;;;;4.90;4.60;;;;;;;17.46;68.85;97227.78;5048422;28;20226;-69
2021/10/31 11:32:24;;;;;;;5.40;4.90;;;;;;;17.82;69.83;97220.66;5052986;28;20222;-71
2021/10/31 11:34:55;;;;;;;4.97;4.57;;;;;;;18.04;68.19;97220.16;5051978;28;20207;-69
2021/10/31 11:37:27;;;;;;;5.00;4.60;;;;;;;18.19;61.02;97217.03;5053912;28;20210;-68